Terminal Aerodrome Forecast
Issued by NWS

Home | Current Version | Previous Version | Text Only | Print | Product List | Glossary On
Versions: 1 2 3 4 5 6 7 8 9 10 11 12 13 14 15 16 17 18 19 20 21 22 23 24 25 26 27 28 29 30 31 32 33
000
FTUS42 KGSP 240538
TAFHKY
TAF
KHKY 240538Z 2406/2506 26004KT P6SM FEW007
     FM240800 VRB03KT 3SM BR SCT005
     FM241300 25007KT P6SM FEW250
     FM241600 25010G17KT P6SM SCT250
      AMD NOT SKED=

USA.gov is the U.S. government's official web portal to all federal, state and local government web resources and services.